createdAt,value
2022-11-14T00:00:18.546Z,37.83
2022-11-14T00:00:48.549Z,37.86
2022-11-14T00:01:18.577Z,37.87
2022-11-14T00:01:48.585Z,37.85
2022-11-14T00:02:18.665Z,37.91
2022-11-14T00:02:48.698Z,37.92
2022-11-14T00:03:18.677Z,37.90
2022-11-14T00:03:48.699Z,37.90
2022-11-14T00:04:18.711Z,37.84
2022-11-14T00:04:48.720Z,37.85
2022-11-14T00:05:18.725Z,37.79
2022-11-14T00:05:48.735Z,37.86
2022-11-14T00:06:18.741Z,37.85
2022-11-14T00:06:48.773Z,37.85
2022-11-14T00:07:18.834Z,37.85
2022-11-14T00:07:48.827Z,37.86
2022-11-14T00:08:18.832Z,37.93
2022-11-14T00:08:48.852Z,37.94
2022-11-14T00:09:18.851Z,37.89
2022-11-14T00:09:48.853Z,37.85
2022-11-14T00:10:18.938Z,37.87
2022-11-14T00:10:49.027Z,37.93
2022-11-14T00:11:19.115Z,37.88
2022-11-14T00:11:49.207Z,37.89
2022-11-14T00:12:19.275Z,37.85
2022-11-14T00:12:49.488Z,37.80
2022-11-14T00:13:19.418Z,37.79
2022-11-14T00:13:49.506Z,37.83
2022-11-14T00:14:19.580Z,37.76
2022-11-14T00:14:49.665Z,37.78
2022-11-14T00:15:19.751Z,37.75
2022-11-14T00:15:49.839Z,37.71
2022-11-14T00:16:19.932Z,37.75
2022-11-14T00:16:49.999Z,37.71
2022-11-14T00:17:20.091Z,37.73
2022-11-14T00:17:50.180Z,37.71
2022-11-14T00:18:20.261Z,37.68
2022-11-14T00:18:50.342Z,37.74
2022-11-14T00:19:20.423Z,37.75
2022-11-14T00:19:50.517Z,37.68
2022-11-14T00:20:20.513Z,37.68
2022-11-14T00:20:50.526Z,37.71
2022-11-14T00:21:20.525Z,37.71
2022-11-14T00:21:50.532Z,37.67
2022-11-14T00:22:20.537Z,37.70
2022-11-14T00:22:50.544Z,37.75
2022-11-14T00:23:20.554Z,37.71
2022-11-14T00:23:50.569Z,37.71
2022-11-14T00:24:20.582Z,37.74
2022-11-14T00:24:50.586Z,37.74
2022-11-14T00:25:20.596Z,37.71
2022-11-14T00:25:50.600Z,37.68
2022-11-14T00:26:20.616Z,37.65
2022-11-14T00:26:50.613Z,37.68
2022-11-14T00:27:20.621Z,37.65
2022-11-14T00:27:50.629Z,37.68
2022-11-14T00:28:20.742Z,37.74
2022-11-14T00:28:50.710Z,37.72
2022-11-14T00:29:20.719Z,37.71
2022-11-14T00:29:50.721Z,37.68
2022-11-14T00:30:20.726Z,37.68
2022-11-14T00:30:50.732Z,37.68
2022-11-14T00:31:20.753Z,37.64
2022-11-14T00:31:50.757Z,37.67
2022-11-14T00:32:20.752Z,37.60
2022-11-14T00:32:50.759Z,37.65
2022-11-14T00:33:21.002Z,37.67
2022-11-14T00:33:50.775Z,37.65
2022-11-14T00:34:20.772Z,37.64
2022-11-14T00:34:50.784Z,37.62
2022-11-14T00:35:20.787Z,37.60
2022-11-14T00:35:50.820Z,37.57
2022-11-14T00:36:20.845Z,37.58
2022-11-14T00:36:50.838Z,37.52
2022-11-14T00:37:20.842Z,37.57
2022-11-14T00:37:50.957Z,37.54
2022-11-14T00:38:20.968Z,37.47
2022-11-14T00:38:50.972Z,37.48
2022-11-14T00:39:20.964Z,37.48
2022-11-14T00:39:50.962Z,37.51
2022-11-14T00:40:20.973Z,37.51
2022-11-14T00:40:51.024Z,37.51
2022-11-14T00:41:21.026Z,37.50
2022-11-14T00:41:51.035Z,37.55
2022-11-14T00:42:21.031Z,37.54
2022-11-14T00:42:51.040Z,37.48
2022-11-14T00:43:21.040Z,37.48
2022-11-14T00:43:51.161Z,37.50
2022-11-14T00:44:21.127Z,37.50
2022-11-14T00:44:51.167Z,37.46
2022-11-14T00:45:21.179Z,37.41
2022-11-14T00:45:51.193Z,37.40
2022-11-14T00:46:21.189Z,37.41
2022-11-14T00:46:51.194Z,37.41
2022-11-14T00:47:21.194Z,37.39
2022-11-14T00:47:51.206Z,37.41
2022-11-14T00:48:21.224Z,37.32
2022-11-14T00:48:51.233Z,37.35
2022-11-14T00:49:21.238Z,37.28
2022-11-14T00:49:51.246Z,37.30
2022-11-14T00:50:21.250Z,37.28
2022-11-14T00:50:51.271Z,37.23
2022-11-14T00:51:21.273Z,37.26
2022-11-14T00:51:51.284Z,37.28
2022-11-14T00:52:21.295Z,37.33
2022-11-14T00:52:51.304Z,37.32
2022-11-14T00:53:21.310Z,37.34
2022-11-14T00:53:51.313Z,37.34
2022-11-14T00:54:21.311Z,37.38
2022-11-14T00:54:51.322Z,37.36
2022-11-14T00:55:21.328Z,37.37
2022-11-14T00:55:51.337Z,37.40
2022-11-14T00:56:21.351Z,37.43
2022-11-14T00:56:51.346Z,37.37
2022-11-14T00:57:21.345Z,37.42
2022-11-14T00:57:51.355Z,37.44
2022-11-14T00:58:21.360Z,37.41
2022-11-14T00:58:51.371Z,37.47
2022-11-14T00:59:21.490Z,37.49
2022-11-14T00:59:51.461Z,37.48
2022-11-14T01:00:21.471Z,37.51
2022-11-14T01:00:51.555Z,37.46
2022-11-14T01:01:21.644Z,37.44
2022-11-14T01:01:55.347Z,37.46
2022-11-14T01:02:21.759Z,37.45
2022-11-14T01:02:51.769Z,37.47
2022-11-14T01:03:21.787Z,37.50
2022-11-14T01:03:51.789Z,37.46
2022-11-14T01:04:21.791Z,37.44
2022-11-14T01:04:51.800Z,37.41
2022-11-14T01:05:21.800Z,37.40
2022-11-14T01:05:51.812Z,37.46
2022-11-14T01:06:21.818Z,37.48
2022-11-14T01:06:51.830Z,37.45
2022-11-14T01:07:21.854Z,37.45
2022-11-14T01:07:51.863Z,37.45
2022-11-14T01:08:21.874Z,37.45
2022-11-14T01:08:51.978Z,37.53
2022-11-14T01:09:22.087Z,37.53
2022-11-14T01:09:51.974Z,37.53
2022-11-14T01:10:22.059Z,37.53
2022-11-14T01:10:52.153Z,37.57
2022-11-14T01:11:22.231Z,37.57
2022-11-14T01:11:52.315Z,37.55
2022-11-14T01:12:22.396Z,37.57
2022-11-14T01:12:52.490Z,37.57
2022-11-14T01:13:22.564Z,37.57
2022-11-14T01:13:52.639Z,37.54
2022-11-14T01:14:22.740Z,37.54
2022-11-14T01:14:52.944Z,37.59
2022-11-14T01:15:22.879Z,37.52
2022-11-14T01:15:52.955Z,37.45
2022-11-14T01:16:23.045Z,37.53
2022-11-14T01:16:53.125Z,37.53
2022-11-14T01:17:23.211Z,37.49
2022-11-14T01:17:53.297Z,37.46
2022-11-14T01:18:23.377Z,37.47
2022-11-14T01:18:53.463Z,37.45
2022-11-14T01:19:23.558Z,37.47
2022-11-14T01:19:53.634Z,37.48
2022-11-14T01:20:23.644Z,37.50
2022-11-14T01:20:53.654Z,37.46
2022-11-14T01:21:23.658Z,37.46
2022-11-14T01:21:53.701Z,37.50
2022-11-14T01:22:23.676Z,37.56
2022-11-14T01:22:53.680Z,37.50
2022-11-14T01:23:23.684Z,37.54
2022-11-14T01:23:53.696Z,37.51
2022-11-14T01:24:23.696Z,37.59
2022-11-14T01:24:53.704Z,37.57
2022-11-14T01:25:23.696Z,37.57
2022-11-14T01:25:53.702Z,37.55
2022-11-14T01:26:23.710Z,37.59
2022-11-14T01:26:53.729Z,37.57
2022-11-14T01:27:23.731Z,37.55
2022-11-14T01:27:53.736Z,37.57
2022-11-14T01:28:23.743Z,37.63
2022-11-14T01:28:53.745Z,37.59
2022-11-14T01:29:23.762Z,37.70
2022-11-14T01:29:53.764Z,37.75
2022-11-14T01:30:23.893Z,37.66
2022-11-14T01:30:53.865Z,37.66
2022-11-14T01:31:23.867Z,37.62
2022-11-14T01:31:53.878Z,37.64
2022-11-14T01:32:23.880Z,37.67
2022-11-14T01:32:53.875Z,37.69
2022-11-14T01:33:23.883Z,37.66
2022-11-14T01:33:53.887Z,37.68
2022-11-14T01:34:23.904Z,37.65
2022-11-14T01:34:53.897Z,37.75
2022-11-14T01:35:24.007Z,37.65
2022-11-14T01:35:54.010Z,37.71
2022-11-14T01:36:24.028Z,37.74
2022-11-14T01:36:54.018Z,37.67
2022-11-14T01:37:24.033Z,37.71
2022-11-14T01:37:54.039Z,37.75
2022-11-14T01:38:24.047Z,37.75
2022-11-14T01:38:54.055Z,37.71
2022-11-14T01:39:24.055Z,37.72
2022-11-14T01:39:54.061Z,37.75
2022-11-14T01:40:24.062Z,37.73
2022-11-14T01:40:54.071Z,37.79
2022-11-14T01:41:24.079Z,37.76
2022-11-14T01:41:54.094Z,37.70
2022-11-14T01:42:27.368Z,37.70
2022-11-14T01:42:54.122Z,37.74
2022-11-14T01:43:24.125Z,37.68
2022-11-14T01:43:54.129Z,37.68
2022-11-14T01:44:24.135Z,37.63
2022-11-14T01:44:54.146Z,37.62
2022-11-14T01:45:24.147Z,37.68
2022-11-14T01:45:54.276Z,37.67
2022-11-14T01:46:24.243Z,37.62
2022-11-14T01:46:54.249Z,37.57
2022-11-14T01:47:24.249Z,37.58
2022-11-14T01:47:54.256Z,37.57
2022-11-14T01:48:24.259Z,37.50
2022-11-14T01:48:54.256Z,37.54
2022-11-14T01:49:24.273Z,37.49
2022-11-14T01:49:54.273Z,37.46
2022-11-14T01:50:24.275Z,37.42
2022-11-14T01:50:54.305Z,37.43
2022-11-14T01:51:24.323Z,37.45
2022-11-14T01:51:54.326Z,37.42
2022-11-14T01:52:24.342Z,37.41
2022-11-14T01:52:54.345Z,37.31
2022-11-14T01:53:24.354Z,37.32
2022-11-14T01:53:54.350Z,37.34
2022-11-14T01:54:24.359Z,37.23
2022-11-14T01:54:54.364Z,37.26
2022-11-14T01:55:24.378Z,37.28
2022-11-14T01:55:54.397Z,37.22
2022-11-14T01:56:24.394Z,37.21
2022-11-14T01:56:54.404Z,37.16
2022-11-14T01:57:24.418Z,37.14
2022-11-14T01:57:54.422Z,37.16
2022-11-14T01:58:24.434Z,37.12
2022-11-14T01:58:54.438Z,37.03
2022-11-14T01:59:24.443Z,37.07
2022-11-14T01:59:54.454Z,37.07
2022-11-14T02:00:24.460Z,37.13
2022-11-14T02:00:54.508Z,37.06
2022-11-14T02:01:24.679Z,37.09
2022-11-14T02:01:54.666Z,37.10
2022-11-14T02:02:24.690Z,37.14
2022-11-14T02:02:54.704Z,37.18
2022-11-14T02:03:24.716Z,37.23
2022-11-14T02:03:54.714Z,37.21
2022-11-14T02:04:24.715Z,37.30
2022-11-14T02:04:54.723Z,37.30
2022-11-14T02:05:24.727Z,37.31
2022-11-14T02:05:54.732Z,37.31
2022-11-14T02:06:24.751Z,37.38
2022-11-14T02:06:54.816Z,37.41
2022-11-14T02:07:24.956Z,37.41
2022-11-14T02:07:54.858Z,37.47
2022-11-14T02:08:24.865Z,37.48
2022-11-14T02:08:54.866Z,37.48
2022-11-14T02:09:24.864Z,37.50
2022-11-14T02:09:54.859Z,37.44
2022-11-14T02:10:24.960Z,37.48
2022-11-14T02:10:55.039Z,37.51
2022-11-14T02:11:25.117Z,37.53
2022-11-14T02:11:55.204Z,37.52
2022-11-14T02:12:25.291Z,37.52
2022-11-14T02:12:55.370Z,37.48
2022-11-14T02:13:25.448Z,37.49
2022-11-14T02:13:55.526Z,37.53
2022-11-14T02:14:25.615Z,37.59
2022-11-14T02:14:55.699Z,37.53
2022-11-14T02:15:25.802Z,37.57
2022-11-14T02:15:55.880Z,37.59
2022-11-14T02:16:25.957Z,37.62
2022-11-14T02:17:22.722Z,37.72
2022-11-14T02:17:30.842Z,37.66
2022-11-14T02:17:56.198Z,37.69
2022-11-14T02:18:26.479Z,37.68
2022-11-14T02:18:56.283Z,37.69
2022-11-14T02:19:26.372Z,37.63
2022-11-14T02:19:59.588Z,37.70
2022-11-14T02:20:26.479Z,37.69
2022-11-14T02:20:56.479Z,37.66
2022-11-14T02:21:26.497Z,37.70
2022-11-14T02:21:56.498Z,37.73
2022-11-14T02:22:26.507Z,37.74
2022-11-14T02:22:56.502Z,37.73
2022-11-14T02:23:26.498Z,37.70
2022-11-14T02:23:56.500Z,37.73
2022-11-14T02:24:26.515Z,37.64
2022-11-14T02:24:56.537Z,37.61
2022-11-14T02:25:26.536Z,37.61
2022-11-14T02:25:56.539Z,37.64
2022-11-14T02:26:26.551Z,37.64
2022-11-14T02:26:56.555Z,37.63
2022-11-14T02:27:26.582Z,37.62
2022-11-14T02:27:56.574Z,37.63
2022-11-14T02:28:26.913Z,37.61
2022-11-14T02:28:56.667Z,37.66
2022-11-14T02:29:26.668Z,37.62
2022-11-14T02:29:56.692Z,37.66
2022-11-14T02:30:26.699Z,37.70
2022-11-14T02:30:56.697Z,37.68
2022-11-14T02:31:26.701Z,37.65
2022-11-14T02:31:56.713Z,37.70
2022-11-14T02:32:26.944Z,37.73
2022-11-14T02:33:10.474Z,37.73
2022-11-14T02:33:26.885Z,37.75
2022-11-14T02:33:56.914Z,37.83
2022-11-14T02:34:26.930Z,37.76
2022-11-14T02:34:56.959Z,37.76
2022-11-14T02:35:26.961Z,37.72
2022-11-14T02:35:56.968Z,37.74
2022-11-14T02:36:26.984Z,37.74
2022-11-14T02:36:56.984Z,37.74
2022-11-14T02:37:26.994Z,37.77
2022-11-14T02:37:56.990Z,37.72
2022-11-14T02:38:27.359Z,37.73
2022-11-14T02:38:57.030Z,37.73
2022-11-14T02:39:27.034Z,37.73
2022-11-14T02:39:57.043Z,37.70
2022-11-14T02:40:27.048Z,37.63
2022-11-14T02:40:57.063Z,37.70
2022-11-14T02:41:27.062Z,37.70
2022-11-14T02:41:57.079Z,37.69
2022-11-14T02:42:27.076Z,37.68
2022-11-14T02:42:57.076Z,37.67
2022-11-14T02:43:27.084Z,37.77
2022-11-14T02:43:57.095Z,37.71
2022-11-14T02:44:27.097Z,37.71
2022-11-14T02:44:57.123Z,37.74
2022-11-14T02:45:27.129Z,37.77
2022-11-14T02:46:00.298Z,37.71
2022-11-14T02:46:27.274Z,37.74
2022-11-14T02:46:57.259Z,37.74
2022-11-14T02:47:27.266Z,37.71
2022-11-14T02:47:57.389Z,37.73
2022-11-14T02:48:27.501Z,37.70
2022-11-14T02:48:57.444Z,37.78
2022-11-14T02:49:27.443Z,37.70
2022-11-14T02:49:57.455Z,37.74
2022-11-14T02:50:27.467Z,37.72
2022-11-14T02:50:57.471Z,37.70
2022-11-14T02:51:27.488Z,37.63
2022-11-14T02:51:57.487Z,37.70
2022-11-14T02:52:27.493Z,37.67
2022-11-14T02:52:57.502Z,37.72
2022-11-14T02:53:27.520Z,37.63
2022-11-14T02:53:57.530Z,37.72
2022-11-14T02:54:27.532Z,37.68
2022-11-14T02:54:57.576Z,37.62
2022-11-14T02:55:27.578Z,37.61
2022-11-14T02:55:57.582Z,37.63
2022-11-14T02:56:27.582Z,37.57
2022-11-14T02:56:57.577Z,37.58
2022-11-14T02:57:27.587Z,37.58
2022-11-14T02:57:57.595Z,37.54
2022-11-14T02:58:27.960Z,37.54
2022-11-14T02:58:57.647Z,37.52
2022-11-14T02:59:27.652Z,37.53
2022-11-14T02:59:57.677Z,37.53
2022-11-14T03:00:27.783Z,37.57
2022-11-14T03:01:19.749Z,37.54
2022-11-14T03:01:27.948Z,37.57
2022-11-14T03:01:57.941Z,37.51
2022-11-14T03:02:27.949Z,37.53
2022-11-14T03:02:57.945Z,37.55
2022-11-14T03:03:28.065Z,37.52
2022-11-14T03:03:58.023Z,37.56
2022-11-14T03:04:28.039Z,37.51
2022-11-14T03:04:58.088Z,37.48
2022-11-14T03:05:28.095Z,37.48
2022-11-14T03:05:58.098Z,37.41
2022-11-14T03:06:28.212Z,37.39
2022-11-14T03:06:58.307Z,37.36
2022-11-14T03:07:28.393Z,37.37
2022-11-14T03:07:58.414Z,37.37
2022-11-14T03:08:28.934Z,37.36
2022-11-14T03:08:58.439Z,37.35
2022-11-14T03:09:28.455Z,37.39
2022-11-14T03:09:58.464Z,37.33
2022-11-14T03:10:28.547Z,37.32
2022-11-14T03:10:58.627Z,37.33
2022-11-14T03:11:28.717Z,37.29
2022-11-14T03:11:58.804Z,37.29
2022-11-14T03:12:28.888Z,37.27
2022-11-14T03:12:58.968Z,37.25
2022-11-14T03:13:29.051Z,37.27
2022-11-14T03:13:59.136Z,37.25
2022-11-14T03:14:29.228Z,37.21
2022-11-14T03:14:59.336Z,37.25
2022-11-14T03:15:29.313Z,37.20
2022-11-14T03:15:59.399Z,37.21
2022-11-14T03:16:29.489Z,37.19
2022-11-14T03:16:59.573Z,37.19
2022-11-14T03:17:29.657Z,37.26
2022-11-14T03:17:59.740Z,37.20
2022-11-14T03:18:30.220Z,37.20
2022-11-14T03:18:59.943Z,37.18
2022-11-14T03:19:30.033Z,37.17
2022-11-14T03:20:00.140Z,37.24
2022-11-14T03:20:30.141Z,37.28
2022-11-14T03:21:00.145Z,37.21
2022-11-14T03:21:30.148Z,37.25
2022-11-14T03:22:00.164Z,37.23
2022-11-14T03:22:30.166Z,37.27
2022-11-14T03:23:00.179Z,37.29
2022-11-14T03:23:30.188Z,37.27
2022-11-14T03:24:00.178Z,37.28
2022-11-14T03:24:30.177Z,37.28
2022-11-14T03:25:00.194Z,37.29
2022-11-14T03:25:30.209Z,37.31
2022-11-14T03:26:00.205Z,37.33
2022-11-14T03:26:30.203Z,37.34
2022-11-14T03:27:00.217Z,37.34
2022-11-14T03:27:30.228Z,37.38
2022-11-14T03:28:00.239Z,37.43
2022-11-14T03:28:30.713Z,37.42
2022-11-14T03:29:00.274Z,37.41
2022-11-14T03:29:30.318Z,37.43
2022-11-14T03:30:00.334Z,37.45
2022-11-14T03:30:30.337Z,37.43
2022-11-14T03:31:00.351Z,37.44
2022-11-14T03:31:30.347Z,37.44
2022-11-14T03:32:00.348Z,37.43
2022-11-14T03:32:30.356Z,37.45
2022-11-14T03:33:00.359Z,37.43
2022-11-14T03:33:30.365Z,37.40
2022-11-14T03:34:00.486Z,37.44
2022-11-14T03:34:30.450Z,37.47
2022-11-14T03:35:00.469Z,37.50
2022-11-14T03:35:30.474Z,37.46
2022-11-14T03:36:00.477Z,37.40
2022-11-14T03:36:30.493Z,37.43
2022-11-14T03:37:00.499Z,37.43
2022-11-14T03:37:30.498Z,37.43
2022-11-14T03:38:00.505Z,37.42
2022-11-14T03:38:30.820Z,37.47
2022-11-14T03:39:00.531Z,37.46
2022-11-14T03:39:30.537Z,37.47
2022-11-14T03:40:00.553Z,37.43
2022-11-14T03:40:30.548Z,37.45
2022-11-14T03:41:00.551Z,37.46
2022-11-14T03:41:30.559Z,37.43
2022-11-14T03:42:00.561Z,37.39
2022-11-14T03:42:30.571Z,37.39
2022-11-14T03:43:00.595Z,37.38
2022-11-14T03:43:30.593Z,37.37
2022-11-14T03:44:00.614Z,37.35
2022-11-14T03:44:30.616Z,37.40
2022-11-14T03:45:00.635Z,37.36
2022-11-14T03:45:30.643Z,37.36
2022-11-14T03:46:00.645Z,37.38
2022-11-14T03:46:30.651Z,37.38
2022-11-14T03:47:00.659Z,37.43
2022-11-14T03:47:30.666Z,37.42
2022-11-14T03:48:00.776Z,37.41
2022-11-14T03:48:31.137Z,37.36
2022-11-14T03:49:00.789Z,37.37
2022-11-14T03:49:30.913Z,37.35
2022-11-14T03:50:00.881Z,37.30
2022-11-14T03:50:30.880Z,37.33
2022-11-14T03:51:00.890Z,37.27
2022-11-14T03:51:30.909Z,37.28
2022-11-14T03:52:00.918Z,37.35
2022-11-14T03:52:30.919Z,37.32
2022-11-14T03:53:00.931Z,37.32
2022-11-14T03:53:30.934Z,37.36
2022-11-14T03:54:00.949Z,37.36
2022-11-14T03:54:30.959Z,37.38
2022-11-14T03:55:00.969Z,37.34
2022-11-14T03:55:30.970Z,37.38
2022-11-14T03:56:00.990Z,37.38
2022-11-14T03:56:30.995Z,37.36
2022-11-14T03:57:01.013Z,37.40
2022-11-14T03:57:31.018Z,37.47
2022-11-14T03:58:01.018Z,37.41
2022-11-14T03:58:31.456Z,37.46
2022-11-14T03:59:01.056Z,37.43
2022-11-14T03:59:31.055Z,37.42
2022-11-14T04:00:01.071Z,37.43
2022-11-14T04:00:31.110Z,37.44
2022-11-14T04:01:01.167Z,37.47
2022-11-14T04:01:31.200Z,37.41
2022-11-14T04:02:01.200Z,37.40
2022-11-14T04:02:31.207Z,37.37
2022-11-14T04:03:01.212Z,37.39
2022-11-14T04:03:31.226Z,37.43
2022-11-14T04:04:01.439Z,37.41
2022-11-14T04:04:31.324Z,37.43
2022-11-14T04:05:01.557Z,37.41
2022-11-14T04:05:31.532Z,37.41
2022-11-14T04:06:01.524Z,37.43
2022-11-14T04:06:31.539Z,37.44
2022-11-14T04:07:01.607Z,37.41
2022-11-14T04:07:31.705Z,37.41
2022-11-14T04:08:01.632Z,37.40
2022-11-14T04:08:32.139Z,37.43
2022-11-14T04:09:01.691Z,37.41
2022-11-14T04:09:31.702Z,37.40
2022-11-14T04:10:01.801Z,37.39
2022-11-14T04:10:31.884Z,37.38
2022-11-14T04:11:01.976Z,37.43
2022-11-14T04:11:32.049Z,37.36
2022-11-14T04:12:02.129Z,37.41
2022-11-14T04:12:32.223Z,37.39
2022-11-14T04:13:02.318Z,37.39
2022-11-14T04:13:32.393Z,37.34
2022-11-14T04:14:02.483Z,37.36
2022-11-14T04:14:32.563Z,37.35
2022-11-14T04:15:02.656Z,37.36
2022-11-14T04:15:32.737Z,37.32
2022-11-14T04:16:02.825Z,37.34
2022-11-14T04:16:32.903Z,37.30
2022-11-14T04:17:02.990Z,37.32
2022-11-14T04:17:38.534Z,37.32
2022-11-14T04:18:03.150Z,37.32
2022-11-14T04:18:33.382Z,37.20
2022-11-14T04:19:03.297Z,37.23
2022-11-14T04:19:33.395Z,37.20
2022-11-14T04:20:03.381Z,37.11
2022-11-14T04:20:33.493Z,37.12
2022-11-14T04:21:03.458Z,37.17
2022-11-14T04:21:33.466Z,37.16
2022-11-14T04:22:03.480Z,37.16
2022-11-14T04:22:33.486Z,37.17
2022-11-14T04:23:03.484Z,37.19
2022-11-14T04:23:33.522Z,37.23
2022-11-14T04:24:07.138Z,37.19
2022-11-14T04:24:33.608Z,37.21
2022-11-14T04:25:03.612Z,37.21
2022-11-14T04:25:33.612Z,37.21
2022-11-14T04:26:03.629Z,37.22
2022-11-14T04:26:33.636Z,37.24
2022-11-14T04:27:03.646Z,37.25
2022-11-14T04:27:33.655Z,37.18
2022-11-14T04:28:03.668Z,37.17
2022-11-14T04:28:33.674Z,37.24
2022-11-14T04:29:03.693Z,37.19
2022-11-14T04:29:33.691Z,37.17
2022-11-14T04:30:03.687Z,37.20
2022-11-14T04:30:34.984Z,37.19
2022-11-14T04:31:03.739Z,37.26
2022-11-14T04:31:33.736Z,37.27
2022-11-14T04:32:03.736Z,37.33
2022-11-14T04:32:33.746Z,37.30
2022-11-14T04:33:03.786Z,37.33
2022-11-14T04:33:33.805Z,37.33
2022-11-14T04:34:03.815Z,37.29
2022-11-14T04:34:33.820Z,37.34
2022-11-14T04:35:03.835Z,37.36
2022-11-14T04:35:33.836Z,37.30
2022-11-14T04:36:03.966Z,37.31
2022-11-14T04:36:33.930Z,37.34
2022-11-14T04:37:03.930Z,37.35
2022-11-14T04:37:33.933Z,37.37
2022-11-14T04:38:03.941Z,37.40
2022-11-14T04:38:33.959Z,37.45
2022-11-14T04:39:03.967Z,37.49
2022-11-14T04:39:33.964Z,37.46
2022-11-14T04:40:03.967Z,37.50
2022-11-14T04:40:33.980Z,37.54
2022-11-14T04:41:03.990Z,37.48
2022-11-14T04:41:33.995Z,37.51
2022-11-14T04:42:03.995Z,37.56
2022-11-14T04:42:33.998Z,37.54
2022-11-14T04:43:04.012Z,37.57
2022-11-14T04:43:34.027Z,37.57
2022-11-14T04:44:04.027Z,37.60
2022-11-14T04:44:34.035Z,37.61
2022-11-14T04:45:04.116Z,37.57
2022-11-14T04:45:34.171Z,37.57
2022-11-14T04:46:04.172Z,37.59
2022-11-14T04:46:34.175Z,37.50
2022-11-14T04:47:04.189Z,37.55
2022-11-14T04:47:34.195Z,37.51
2022-11-14T04:48:04.208Z,37.48
2022-11-14T04:48:34.213Z,37.56
2022-11-14T04:49:04.256Z,37.52
2022-11-14T04:49:34.259Z,37.55
2022-11-14T04:50:04.259Z,37.60
2022-11-14T04:50:34.274Z,37.57
2022-11-14T04:51:04.287Z,37.59
2022-11-14T04:51:34.399Z,37.64
2022-11-14T04:52:04.366Z,37.63
2022-11-14T04:52:34.366Z,37.70
2022-11-14T04:53:04.385Z,37.61
2022-11-14T04:53:34.388Z,37.63
2022-11-14T04:54:04.429Z,37.59
2022-11-14T04:54:34.431Z,37.58
2022-11-14T04:55:04.437Z,37.59
2022-11-14T04:55:34.447Z,37.63
2022-11-14T04:56:04.457Z,37.59
2022-11-14T04:56:34.459Z,37.63
2022-11-14T04:57:04.465Z,37.58
2022-11-14T04:57:34.480Z,37.56
2022-11-14T04:58:04.488Z,37.57
2022-11-14T04:58:34.498Z,37.56
2022-11-14T04:59:04.519Z,37.60
2022-11-14T04:59:34.520Z,37.64
2022-11-14T05:00:04.532Z,37.61
2022-11-14T05:00:34.541Z,37.61
2022-11-14T05:01:04.589Z,37.62
2022-11-14T05:01:34.650Z,37.67
2022-11-14T05:02:04.636Z,37.61
2022-11-14T05:02:34.639Z,37.59
2022-11-14T05:03:04.643Z,37.64
2022-11-14T05:03:34.657Z,37.63
2022-11-14T05:04:04.665Z,37.57
2022-11-14T05:04:34.680Z,37.57
2022-11-14T05:05:04.686Z,37.55
2022-11-14T05:05:39.223Z,37.60
2022-11-14T05:06:04.693Z,37.61
2022-11-14T05:06:34.694Z,37.57
2022-11-14T05:07:04.870Z,37.56
2022-11-14T05:07:34.769Z,37.57
2022-11-14T05:08:04.806Z,37.56
2022-11-14T05:08:34.822Z,37.63
2022-11-14T05:09:04.831Z,37.60
2022-11-14T05:09:34.840Z,37.56
2022-11-14T05:10:04.944Z,37.52
2022-11-14T05:10:35.096Z,37.57
2022-11-14T05:11:05.089Z,37.64
2022-11-14T05:11:35.171Z,37.65
2022-11-14T05:12:05.257Z,37.64
2022-11-14T05:12:35.340Z,37.62
2022-11-14T05:13:05.422Z,37.59
2022-11-14T05:13:35.503Z,37.58
2022-11-14T05:14:05.593Z,37.52
2022-11-14T05:14:35.685Z,37.52
2022-11-14T05:15:05.802Z,37.56
2022-11-14T05:15:35.772Z,37.51
2022-11-14T05:16:05.851Z,37.54
2022-11-14T05:16:35.941Z,37.52
2022-11-14T05:17:06.035Z,37.50
2022-11-14T05:17:36.117Z,37.52
2022-11-14T05:18:06.206Z,37.43
2022-11-14T05:18:36.287Z,37.50
2022-11-14T05:19:06.387Z,37.40
2022-11-14T05:19:36.468Z,37.48
2022-11-14T05:20:06.566Z,37.41
2022-11-14T05:20:36.578Z,37.41
2022-11-14T05:21:06.579Z,37.41
2022-11-14T05:21:36.589Z,37.40
2022-11-14T05:22:06.592Z,37.36
2022-11-14T05:22:36.620Z,37.36
2022-11-14T05:23:06.620Z,37.41
2022-11-14T05:23:36.626Z,37.34
2022-11-14T05:24:06.645Z,37.34
2022-11-14T05:24:36.641Z,37.34
2022-11-14T05:25:06.655Z,37.35
2022-11-14T05:25:36.661Z,37.35
2022-11-14T05:26:06.681Z,37.35
2022-11-14T05:26:36.693Z,37.33
2022-11-14T05:27:06.696Z,37.18
2022-11-14T05:27:36.699Z,36.98
2022-11-14T05:28:06.707Z,36.89
2022-11-14T05:28:36.715Z,36.60
2022-11-14T05:29:06.815Z,36.69
2022-11-14T05:29:36.816Z,36.75
2022-11-14T05:30:06.825Z,36.67
2022-11-14T05:30:36.830Z,36.70
2022-11-14T05:31:06.835Z,36.77
2022-11-14T05:31:36.841Z,36.69
2022-11-14T05:32:06.839Z,36.68
2022-11-14T05:32:36.856Z,36.78
2022-11-14T05:33:06.861Z,36.78
2022-11-14T05:33:36.879Z,36.81
2022-11-14T05:34:06.888Z,36.89
2022-11-14T05:34:36.899Z,36.90
2022-11-14T05:35:06.905Z,36.98
2022-11-14T05:35:36.905Z,37.02
2022-11-14T05:36:06.908Z,37.09
2022-11-14T05:36:37.017Z,37.02
2022-11-14T05:37:07.025Z,37.05
2022-11-14T05:37:37.039Z,37.08
2022-11-14T05:38:07.073Z,37.16
2022-11-14T05:38:37.053Z,37.20
2022-11-14T05:39:07.061Z,37.14
2022-11-14T05:39:37.079Z,37.18
2022-11-14T05:40:07.086Z,37.18
2022-11-14T05:40:37.086Z,37.29
2022-11-14T05:41:07.089Z,37.29
2022-11-14T05:41:37.093Z,37.37
2022-11-14T05:42:07.101Z,37.41
2022-11-14T05:42:37.107Z,37.44
2022-11-14T05:43:07.125Z,37.48
2022-11-14T05:43:37.135Z,37.49
2022-11-14T05:44:07.134Z,37.56
2022-11-14T05:44:37.138Z,37.57
2022-11-14T05:45:07.153Z,37.59
2022-11-14T05:45:37.157Z,37.61
2022-11-14T05:46:07.153Z,37.65
2022-11-14T05:46:37.185Z,37.65
2022-11-14T05:47:07.177Z,37.72
2022-11-14T05:47:37.185Z,37.68
2022-11-14T05:48:07.191Z,37.68
2022-11-14T05:48:37.199Z,37.72
2022-11-14T05:49:07.202Z,37.76
2022-11-14T05:49:37.219Z,37.71
2022-11-14T05:50:07.268Z,37.80
2022-11-14T05:50:37.265Z,37.77
2022-11-14T05:51:07.272Z,37.79
2022-11-14T05:51:37.273Z,37.78
2022-11-14T05:52:07.289Z,37.95
2022-11-14T05:52:37.305Z,37.93
2022-11-14T05:53:07.306Z,37.96
2022-11-14T05:53:37.329Z,37.99
2022-11-14T05:54:07.307Z,37.94
2022-11-14T05:54:37.319Z,38.01
2022-11-14T05:55:07.318Z,38.01
2022-11-14T05:55:37.323Z,38.05
2022-11-14T05:56:07.326Z,38.12
2022-11-14T05:56:37.325Z,38.17
2022-11-14T05:57:07.328Z,38.15
2022-11-14T05:57:37.336Z,38.14
2022-11-14T05:58:07.333Z,38.04
2022-11-14T05:58:37.353Z,38.03
2022-11-14T05:59:07.365Z,38.13
2022-11-14T05:59:37.369Z,38.12
2022-11-14T06:00:07.384Z,38.20
2022-11-14T06:00:43.667Z,38.17
2022-11-14T06:01:07.478Z,38.16
2022-11-14T06:01:37.517Z,38.18
2022-11-14T06:02:07.576Z,38.24
2022-11-14T06:02:37.606Z,38.30
2022-11-14T06:03:07.606Z,38.44
2022-11-14T06:03:37.610Z,38.40
2022-11-14T06:04:07.621Z,38.60
2022-11-14T06:04:37.640Z,38.74
2022-11-14T06:05:07.647Z,38.78
2022-11-14T06:05:37.651Z,38.79
2022-11-14T06:06:07.647Z,38.83
2022-11-14T06:06:37.650Z,38.89
2022-11-14T06:07:07.719Z,39.02
2022-11-14T06:07:37.802Z,38.97
2022-11-14T06:08:07.795Z,39.04
2022-11-14T06:08:37.805Z,39.01
2022-11-14T06:09:07.836Z,38.98
2022-11-14T06:09:37.832Z,39.04
2022-11-14T06:10:07.921Z,39.02
2022-11-14T06:10:37.999Z,38.98
2022-11-14T06:11:08.076Z,39.05
2022-11-14T06:11:38.931Z,39.00
2022-11-14T06:12:08.195Z,39.04
2022-11-14T06:12:38.273Z,39.12
2022-11-14T06:13:08.353Z,39.04
2022-11-14T06:13:38.436Z,39.08
2022-11-14T06:14:10.861Z,39.05
2022-11-14T06:14:38.621Z,39.11
2022-11-14T06:15:08.693Z,39.00
2022-11-14T06:15:38.776Z,39.02
2022-11-14T06:16:08.858Z,39.16
2022-11-14T06:16:38.945Z,39.08
2022-11-14T06:17:09.023Z,39.07
2022-11-14T06:17:39.107Z,39.09
2022-11-14T06:18:09.194Z,39.16
2022-11-14T06:18:39.283Z,39.00
2022-11-14T06:19:09.360Z,39.00
2022-11-14T06:19:39.447Z,39.07
2022-11-14T06:20:09.445Z,39.02
2022-11-14T06:20:39.444Z,38.99
2022-11-14T06:21:09.459Z,38.99
2022-11-14T06:21:39.471Z,39.00
2022-11-14T06:22:09.464Z,39.03
2022-11-14T06:22:39.476Z,39.04
2022-11-14T06:23:09.482Z,39.09
2022-11-14T06:23:39.493Z,39.07
2022-11-14T06:24:09.524Z,39.10
2022-11-14T06:24:39.497Z,38.99
2022-11-14T06:25:09.510Z,38.98
2022-11-14T06:25:39.519Z,39.07
2022-11-14T06:26:09.524Z,39.07
2022-11-14T06:26:39.533Z,39.01